AGROMETEOROLOŠKI PORTAL

vinorodna pokrajina

Temelj dobrega kmetovanja

Pregled podatkov za lokacijo Vogrsko, meteorološka postaja 49191

Pregled senzorjev na lokaciji

ID Ime Zadnja
vrednost
Datum in čas
meritve
(lokalni čas)
Tip
senzorja
3645 Sončno sevanje (W/m2) 139 W/m2 4.10.2022 16:00 Pyranometer SP-Lite
3643 Omočenost lista (1,5 m) (U) 0 U 4.10.2022 16:00 A730WET
5058 Padavine (mm) 0 mm 4.10.2022 16:00 Generic 0.2 mm
3642 Relativna zračna vlaga (2 m) (%RH) 70 %RH 4.10.2022 16:00 50YA
5740 Temperatura tal (30 cm) (°C) 16,6 °C 4.10.2022 16:00 ST2
3641 Temperatura (2 m) (°C) 19,8 °C 4.10.2022 16:00 50YA
6642 Smer vetra (3 m) (°) 261 ° 4.10.2022 16:00 Generic 0 - 360
6641 Hitrost vetra (3 m) (km/h) 6 km/h 4.10.2022 16:00 Pro10/2 270 km/h

Pregled podatkov zadnjih 24 ur

Zap.
št.
Datum in čas
(lokalni čas)
Vogrsko
Sončno
sevanje
Omočenost
lista
(1,5
m)
Padavine Relativna
zračna
vlaga
(2
m)
Temperatura
tal
(30
cm)
Temperatura
(2
m)
Smer
vetra
(3
m)
Hitrost
vetra
(3
m)
1 4.10.2022 16:00 138,5 0 0 70,3 16,6 19,8 261,5 5,8
2 4.10.2022 15:30 198,8 0 0 67,6 16,5 20,2 232,1 4,6
3 4.10.2022 15:00 217,4 0 0 65 16,5 20,4 211,1 4,2
4 4.10.2022 14:30 303 0 0 62,4 16,6 20,8 190,3 3,3
5 4.10.2022 14:00 332,4 0 0 61,5 16,5 20,9 283 3,6
6 4.10.2022 13:30 368,3 0 0 60,4 16,5 20,4 55,3 4
7 4.10.2022 13:00 474,6 0 0 59 16,5 20,8 265,3 2,5
8 4.10.2022 12:30 537,3 0 0 60,1 16,5 19,7 93,8 2,1
9 4.10.2022 12:00 369,1 0 0 68,1 16,5 18,7 210,3 1,6
10 4.10.2022 11:30 207 0 0 74,3 16,5 17 30,7 4,2
11 4.10.2022 11:00 197,6 0 0 76,9 16,5 16,6 343,1 3
12 4.10.2022 10:30 217,3 0 0 84,8 16,6 15,6 30,5 1,5
13 4.10.2022 10:00 131,7 1 0 94,2 16,5 14,3 341,4 4,1
14 4.10.2022 09:30 136,3 2 0 98,2 16,5 13,5 52,9 1,7
15 4.10.2022 09:00 92,6 9 0 99,2 16,6 12,3 196,5 2,8
16 4.10.2022 08:30 78,6 10 0 99,4 16,7 11,6 42,3 2,6
17 4.10.2022 08:00 53,5 10 0 99,6 16,6 10,8 314,3 1,5
18 4.10.2022 07:30 9,6 10 0 99,6 16,6 10,4 228,6 1,7
19 4.10.2022 07:00 0,6 10 0 99,6 16,6 10,1 217,7 0,5
20 4.10.2022 06:30 0 10 0 99,6 16,5 10,1 71,3 1,2
21 4.10.2022 06:00 0 10 0 99,6 16,7 9,8 8,9 1,6
22 4.10.2022 05:30 0 10 0 99,5 16,6 9,2 143,4 1,4
23 4.10.2022 05:00 0 10 0 99,4 16,7 9,3 120,5 0,7
24 4.10.2022 04:30 0 10 0 99,4 16,8 9,7 333,9 1,8
25 4.10.2022 04:00 0 10 0 99,3 16,6 9,4 201,7 1,8
26 4.10.2022 03:30 0 10 0 99,2 16,7 9,3 36,8 0,9
27 4.10.2022 03:00 0 10 0 99,1 16,8 9,6 101,3 2,2
28 4.10.2022 02:30 0 10 0 99 16,7 9,9 243,3 1,6
29 4.10.2022 02:00 0 10 0 98,9 16,7 10 177,2 2,3
30 4.10.2022 01:30 0 10 0 98,9 16,8 10,6 99,1 1,8
31 4.10.2022 01:00 0 10 0 98,7 16,7 10,9 211,4 2,1
32 4.10.2022 00:30 0 10 0 98,6 16,8 11,3 126,2 1,5
33 4.10.2022 00:00 0 10 0 98,3 16,9 11,6 35,5 0,8
34 3.10.2022 23:30 0 10 0 98,1 16,7 12,1 144,5 0,6
35 3.10.2022 23:00 0 10 0 97,9 16,8 12,5 91 1
36 3.10.2022 22:30 0 10 0 97,5 16,7 13,1 218,4 0,8
37 3.10.2022 22:00 0 10 0 96,9 16,8 13,7 85,3 0,7
38 3.10.2022 21:30 0 10 0 96,3 16,6 13,9 203,2 1,1
39 3.10.2022 21:00 0 10 0 95,9 16,8 13,9 349,2 3,4
40 3.10.2022 20:30 0 10 0 94,6 16,7 14,3 248,4 1,7
41 3.10.2022 20:00 0 10 0 93,3 16,7 14,9 225,3 1,7
42 3.10.2022 19:30 0 10 0 91,4 16,6 15,7 143,7 1,8
43 3.10.2022 19:00 3,7 9 0 87,3 16,6 17,1 304,5 0,1
44 3.10.2022 18:30 37,7 0 0 81,7 16,6 18,5 235,8 3,6
45 3.10.2022 18:00 101,4 0 0 71,8 16,6 21,6 229,1 3,7
46 3.10.2022 17:30 175,1 0 0 55,2 16,8 23,6 312,3 4,4